Russelville, Illinois
Current Conditions -  °F | °C
As of 10:09 PM on Tuesday 27 Jan 2015 (Local Time) from KLWV Reporting Station
Broken Clouds Broken Clouds  
Wind Chill: 25°   Ceiling: 2200
Heat Index: 30°   Visibility: 8mi
Dew Point: 25°   Wind: 5mph
Humidity: 82%   Direction: 30°NNE
Pressure: 30.27"   Gusts: NA
Location:  38.7501°N, 87.6141°W
Report Text: KLWV 280409Z AUTO 03004KT 8SM BKN022 M01/M04 A3027 RMK AO2 T10111039
Loading
Personal Weather Stations






























Interactive Weather Map New forecast layout! Learn more

10-Day Weather Forecast

Advertisements
Track Severe Weather on mobile